createdAt,value
2019-04-16T00:01:35.003Z,0.80
2019-04-16T00:04:38.452Z,0.80
2019-04-16T00:07:25.502Z,0.80
2019-04-16T00:10:02.056Z,0.70
2019-04-16T00:12:54.247Z,0.60
2019-04-16T00:15:23.596Z,0.50
2019-04-16T00:17:53.011Z,0.50
2019-04-16T00:20:22.651Z,0.50
2019-04-16T00:22:58.208Z,0.60
2019-04-16T00:25:27.878Z,0.60
2019-04-16T00:27:59.507Z,0.60
2019-04-16T00:30:28.328Z,0.50
2019-04-16T00:32:57.753Z,0.40
2019-04-16T00:35:27.350Z,0.40
2019-04-16T00:37:56.687Z,0.40
2019-04-16T00:40:27.193Z,0.30
2019-04-16T00:42:56.780Z,0.30
2019-04-16T00:45:26.107Z,0.20
2019-04-16T00:47:55.813Z,0.30
2019-04-16T00:50:25.146Z,0.20
2019-04-16T00:52:54.611Z,0.30
2019-04-16T00:55:23.976Z,0.30
2019-04-16T00:57:53.491Z,0.20
2019-04-16T01:00:23.172Z,0.20
2019-04-16T01:02:52.660Z,0.10
2019-04-16T01:05:21.975Z,0.10
2019-04-16T01:07:51.710Z,0.00
2019-04-16T01:10:21.184Z,-0.10
2019-04-16T01:12:50.614Z,-0.20
2019-04-16T01:15:19.950Z,-0.20
2019-04-16T01:17:49.651Z,-0.10
2019-04-16T01:20:19.026Z,-0.10
2019-04-16T01:22:48.423Z,-0.10
2019-04-16T01:25:20.349Z,-0.10
2019-04-16T01:27:53.664Z,-0.20
2019-04-16T01:30:36.476Z,-0.20
2019-04-16T01:33:28.447Z,-0.20
2019-04-16T01:36:14.896Z,-0.20
2019-04-16T01:39:07.616Z,-0.30
2019-04-16T01:41:25.315Z,-0.30
2019-04-16T01:43:57.095Z,-0.30
2019-04-16T01:46:25.793Z,-0.20
2019-04-16T01:48:55.264Z,-0.30
2019-04-16T01:51:24.687Z,-0.20
2019-04-16T01:53:54.308Z,-0.30
2019-04-16T01:56:27.945Z,-0.30
2019-04-16T01:58:54.932Z,-0.30
2019-04-16T02:01:24.296Z,-0.30
2019-04-16T02:03:53.679Z,-0.40
2019-04-16T02:06:25.707Z,-0.40
2019-04-16T02:08:54.419Z,-0.40
2019-04-16T02:11:23.923Z,-0.40
2019-04-16T02:13:53.299Z,-0.50
2019-04-16T02:16:25.204Z,-0.50
2019-04-16T02:18:53.829Z,-0.50
2019-04-16T02:21:23.187Z,-0.60
2019-04-16T02:23:52.914Z,-0.60
2019-04-16T02:26:23.555Z,-0.60
2019-04-16T02:28:53.482Z,-0.60
2019-04-16T02:31:22.973Z,-0.60
2019-04-16T02:33:52.432Z,-0.70
2019-04-16T02:36:21.908Z,-0.80
2019-04-16T02:38:53.437Z,-0.80
2019-04-16T02:41:24.427Z,-0.60
2019-04-16T02:43:53.780Z,-0.70
2019-04-16T02:46:23.293Z,-0.70
2019-04-16T02:48:52.665Z,-0.70
2019-04-16T02:51:39.883Z,-0.90
2019-04-16T02:54:19.671Z,-0.90
2019-04-16T02:57:07.317Z,-0.90
2019-04-16T02:59:45.733Z,-0.90
2019-04-16T03:02:26.363Z,-0.90
2019-04-16T03:05:10.321Z,-1.00
2019-04-16T03:07:39.934Z,-1.10
2019-04-16T03:10:13.271Z,-1.10
2019-04-16T03:12:40.809Z,-1.00
2019-04-16T03:15:10.741Z,-0.90
2019-04-16T03:17:43.887Z,-0.90
2019-04-16T03:20:14.658Z,-1.00
2019-04-16T03:22:44.122Z,-1.00
2019-04-16T03:25:14.369Z,-1.10
2019-04-16T03:27:44.552Z,-1.20
2019-04-16T03:30:14.078Z,-1.20
2019-04-16T03:32:50.624Z,-1.30
2019-04-16T03:35:25.511Z,-1.30
2019-04-16T03:37:51.508Z,-1.30
2019-04-16T03:40:24.725Z,-1.30
2019-04-16T03:42:52.114Z,-1.30
2019-04-16T03:45:21.820Z,-1.30
2019-04-16T03:47:52.195Z,-1.30
2019-04-16T03:50:22.178Z,-1.30
2019-04-16T03:52:51.569Z,-1.30
2019-04-16T03:55:25.006Z,-1.30
2019-04-16T03:57:52.166Z,-1.30
2019-04-16T04:00:21.722Z,-1.30
2019-04-16T04:02:54.106Z,-1.30
2019-04-16T04:05:22.554Z,-1.40
2019-04-16T04:07:55.076Z,-1.40
2019-04-16T04:10:30.322Z,-1.40
2019-04-16T04:12:54.397Z,-1.40
2019-04-16T04:15:26.384Z,-1.40
2019-04-16T04:17:54.986Z,-1.50
2019-04-16T04:20:24.398Z,-1.50
2019-04-16T04:22:56.748Z,-1.50
2019-04-16T04:25:25.515Z,-1.50
2019-04-16T04:27:54.915Z,-1.50
2019-04-16T04:30:25.696Z,-1.40
2019-04-16T04:32:56.282Z,-1.50
2019-04-16T04:35:25.667Z,-1.50
2019-04-16T04:37:55.110Z,-1.60
2019-04-16T04:40:25.155Z,-1.60
2019-04-16T04:42:54.525Z,-1.60
2019-04-16T04:45:24.203Z,-1.60
2019-04-16T04:47:53.774Z,-1.60
2019-04-16T04:50:23.207Z,-1.60
2019-04-16T04:52:52.923Z,-1.60
2019-04-16T04:55:23.423Z,-1.60
2019-04-16T04:57:53.496Z,-1.60
2019-04-16T05:00:22.872Z,-1.50
2019-04-16T05:02:52.280Z,-1.50
2019-04-16T05:05:26.831Z,-1.50
2019-04-16T05:07:59.776Z,-1.50
2019-04-16T05:10:27.352Z,-1.50
2019-04-16T05:12:57.087Z,-1.50
2019-04-16T05:15:29.385Z,-1.50
2019-04-16T05:17:57.950Z,-1.40
2019-04-16T05:20:29.814Z,-1.30
2019-04-16T05:22:58.509Z,-1.30
2019-04-16T05:25:33.191Z,-1.30
2019-04-16T05:27:59.078Z,-1.20
2019-04-16T05:30:28.548Z,-1.10
2019-04-16T05:32:58.528Z,-1.00
2019-04-16T05:35:28.049Z,-1.00
2019-04-16T05:37:57.412Z,-0.90
2019-04-16T05:40:28.058Z,-0.90
2019-04-16T05:42:58.910Z,-0.70
2019-04-16T05:45:29.411Z,-0.60
2019-04-16T05:47:59.117Z,-0.60
2019-04-16T05:50:29.852Z,-0.40
2019-04-16T05:52:59.462Z,-0.40
2019-04-16T05:55:44.299Z,-0.30
2019-04-16T05:58:13.738Z,-0.20
2019-04-16T06:01:13.699Z,-0.10
2019-04-16T06:03:42.490Z,0.10
2019-04-16T06:06:12.200Z,0.20
2019-04-16T06:08:41.830Z,0.30
2019-04-16T06:11:11.915Z,0.50
2019-04-16T06:13:55.473Z,0.60
2019-04-16T06:16:36.616Z,0.70
2019-04-16T06:19:27.874Z,0.80
2019-04-16T06:22:31.433Z,1.00
2019-04-16T06:25:18.633Z,1.10
2019-04-16T06:28:02.702Z,1.30
2019-04-16T06:30:45.928Z,1.50
2019-04-16T06:33:37.749Z,1.70
2019-04-16T06:36:21.521Z,1.90
2019-04-16T06:39:13.204Z,2.10
2019-04-16T06:42:03.411Z,2.30
2019-04-16T06:44:34.981Z,2.40
2019-04-16T06:47:23.187Z,2.70
2019-04-16T06:50:06.804Z,3.00
2019-04-16T06:53:01.388Z,3.20
2019-04-16T06:55:36.285Z,3.20
2019-04-16T06:58:49.863Z,3.30
2019-04-16T07:01:25.363Z,3.50
2019-04-16T07:04:00.454Z,3.80
2019-04-16T07:07:01.098Z,4.00
2019-04-16T07:09:57.099Z,4.10
2019-04-16T07:12:30.198Z,4.30
2019-04-16T07:14:59.624Z,4.40
2019-04-16T07:17:33.761Z,4.60
2019-04-16T07:20:00.669Z,4.80
2019-04-16T07:22:30.074Z,4.90
2019-04-16T07:25:03.867Z,5.00
2019-04-16T07:27:52.734Z,5.20
2019-04-16T07:30:41.687Z,5.40
2019-04-16T07:33:18.869Z,5.60
2019-04-16T07:35:56.160Z,5.80
2019-04-16T07:38:44.754Z,6.00
2019-04-16T07:41:32.519Z,6.20
2019-04-16T07:44:10.197Z,6.40
2019-04-16T07:46:58.369Z,6.80
2019-04-16T07:49:39.158Z,7.20
2019-04-16T07:52:26.482Z,7.50
2019-04-16T07:55:15.284Z,7.70
2019-04-16T07:57:44.848Z,7.90
2019-04-16T08:00:15.225Z,7.90
2019-04-16T08:02:45.260Z,7.90
2019-04-16T08:05:14.654Z,8.00
2019-04-16T08:07:44.151Z,8.10
2019-04-16T08:10:16.784Z,8.30
2019-04-16T08:12:50.601Z,8.60
2019-04-16T08:15:20.310Z,8.80
2019-04-16T08:17:49.816Z,9.00
2019-04-16T08:20:21.024Z,9.30
2019-04-16T08:22:52.513Z,9.50
2019-04-16T08:25:33.519Z,9.70
2019-04-16T08:28:00.911Z,9.90
2019-04-16T08:30:34.462Z,10.20
2019-04-16T08:33:01.690Z,10.30
2019-04-16T08:35:31.219Z,10.50
2019-04-16T08:38:00.829Z,10.70
2019-04-16T08:40:30.319Z,10.90
2019-04-16T08:42:59.737Z,11.10
2019-04-16T08:45:29.447Z,11.30
2019-04-16T08:47:58.907Z,11.40
2019-04-16T08:50:28.835Z,11.50
2019-04-16T08:52:58.552Z,11.60
2019-04-16T08:55:28.259Z,11.80
2019-04-16T08:57:57.676Z,11.90
2019-04-16T09:00:27.104Z,12.00
2019-04-16T09:02:58.692Z,12.20
2019-04-16T09:05:27.688Z,12.30
2019-04-16T09:08:12.210Z,12.50
2019-04-16T09:10:34.604Z,12.50
2019-04-16T09:13:06.586Z,12.60
2019-04-16T09:15:36.629Z,12.80
2019-04-16T09:18:33.995Z,12.80
2019-04-16T09:21:06.927Z,13.00
2019-04-16T09:23:35.070Z,13.30
2019-04-16T09:26:23.801Z,13.40
2019-04-16T09:29:25.258Z,13.60
2019-04-16T09:32:16.733Z,13.60
2019-04-16T09:35:08.841Z,13.80
2019-04-16T09:37:53.718Z,14.00
2019-04-16T09:40:41.104Z,14.20
2019-04-16T09:43:17.562Z,14.40
2019-04-16T09:45:44.426Z,14.60
2019-04-16T09:48:14.007Z,14.60
2019-04-16T09:50:47.572Z,14.70
2019-04-16T09:53:14.573Z,15.00
2019-04-16T09:55:44.244Z,15.30
2019-04-16T09:58:21.615Z,15.60
2019-04-16T10:01:07.554Z,15.80
2019-04-16T10:03:39.165Z,16.00
2019-04-16T10:06:08.684Z,16.40
2019-04-16T10:08:38.091Z,16.50
2019-04-16T10:11:07.687Z,16.30
2019-04-16T10:13:37.392Z,16.30
2019-04-16T10:16:07.341Z,16.40
2019-04-16T10:18:37.011Z,16.60
2019-04-16T10:21:06.458Z,16.60
2019-04-16T10:23:45.021Z,16.90
2019-04-16T10:26:14.997Z,16.90
2019-04-16T10:28:44.703Z,16.80
2019-04-16T10:31:16.457Z,17.00
2019-04-16T10:33:46.014Z,17.50
2019-04-16T10:36:15.540Z,17.70
2019-04-16T10:39:12.571Z,17.90
2019-04-16T10:41:49.480Z,18.10
2019-04-16T10:44:50.208Z,17.70
2019-04-16T10:47:41.499Z,17.80
2019-04-16T10:50:19.024Z,17.80
2019-04-16T10:53:07.489Z,17.80
2019-04-16T10:55:49.363Z,17.80
2019-04-16T10:59:01.881Z,17.50
2019-04-16T11:01:35.928Z,17.30
2019-04-16T11:04:13.957Z,16.80
2019-04-16T11:06:45.841Z,16.60
2019-04-16T11:09:15.603Z,16.30
2019-04-16T11:11:45.560Z,16.10
2019-04-16T11:14:15.084Z,15.90
2019-04-16T11:16:47.044Z,15.80
2019-04-16T11:19:16.517Z,15.60
2019-04-16T11:21:45.940Z,15.40
2019-04-16T11:24:15.967Z,14.90
2019-04-16T11:26:45.829Z,14.50
2019-04-16T11:29:15.532Z,14.00
2019-04-16T11:31:45.310Z,13.50
2019-04-16T11:34:15.227Z,13.10
2019-04-16T11:36:44.970Z,12.60
2019-04-16T11:39:14.946Z,12.20
2019-04-16T11:41:45.089Z,11.90
2019-04-16T11:44:16.799Z,11.70
2019-04-16T11:46:45.699Z,11.40
2019-04-16T11:49:15.331Z,11.00
2019-04-16T11:51:45.106Z,10.80
2019-04-16T11:54:14.604Z,10.60
2019-04-16T11:56:46.015Z,10.60
2019-04-16T11:59:15.831Z,10.60
2019-04-16T12:02:04.674Z,10.50
2019-04-16T12:04:55.927Z,10.60
2019-04-16T12:07:34.668Z,10.60
2019-04-16T12:10:23.187Z,10.70
2019-04-16T12:13:10.227Z,10.80
2019-04-16T12:16:05.243Z,11.00
2019-04-16T12:18:59.570Z,11.40
2019-04-16T12:21:44.001Z,11.70
2019-04-16T12:24:35.133Z,11.90
2019-04-16T12:27:13.452Z,12.00
2019-04-16T12:29:54.603Z,12.00
2019-04-16T12:32:31.987Z,11.90
2019-04-16T12:35:31.052Z,11.90
2019-04-16T12:38:29.228Z,12.60
2019-04-16T12:41:16.632Z,13.50
2019-04-16T12:44:05.257Z,14.30
2019-04-16T12:46:49.346Z,14.80
2019-04-16T12:49:36.686Z,15.20
2019-04-16T12:52:28.209Z,15.60
2019-04-16T12:55:34.978Z,15.70
2019-04-16T12:58:08.189Z,15.90
2019-04-16T13:00:48.671Z,16.10
2019-04-16T13:03:40.071Z,15.70
2019-04-16T13:06:27.158Z,15.70
2019-04-16T13:09:23.312Z,15.90
2019-04-16T13:12:10.061Z,16.20
2019-04-16T13:15:11.820Z,15.90
2019-04-16T13:18:06.082Z,15.50
2019-04-16T13:20:57.060Z,15.70
2019-04-16T13:23:49.775Z,15.80
2019-04-16T13:26:25.447Z,16.00
2019-04-16T13:28:56.166Z,15.60
2019-04-16T13:31:25.812Z,15.70
2019-04-16T13:33:55.758Z,15.90
2019-04-16T13:36:27.828Z,16.40
2019-04-16T13:39:15.627Z,16.50
2019-04-16T13:41:45.132Z,16.50
2019-04-16T13:44:17.294Z,16.30
2019-04-16T13:46:52.272Z,16.10
2019-04-16T13:49:40.763Z,16.20
2019-04-16T13:52:10.248Z,16.20
2019-04-16T13:55:09.677Z,16.00
2019-04-16T13:57:39.982Z,15.80
2019-04-16T14:00:29.401Z,15.80
2019-04-16T14:03:02.749Z,15.80
2019-04-16T14:05:37.439Z,15.90
2019-04-16T14:08:03.965Z,15.80
2019-04-16T14:10:33.462Z,15.70
2019-04-16T14:13:03.064Z,15.70
2019-04-16T14:15:38.997Z,15.70
2019-04-16T14:18:06.188Z,15.80
2019-04-16T14:20:35.625Z,16.00
2019-04-16T14:23:05.513Z,16.10
2019-04-16T14:25:35.056Z,16.10
2019-04-16T14:28:04.511Z,16.10
2019-04-16T14:30:39.620Z,16.00
2019-04-16T14:33:09.214Z,16.00
2019-04-16T14:35:40.631Z,16.00
2019-04-16T14:38:11.537Z,16.20
2019-04-16T14:40:42.335Z,16.20
2019-04-16T14:43:14.113Z,16.00
2019-04-16T14:45:58.187Z,15.90
2019-04-16T14:48:20.454Z,16.00
2019-04-16T14:50:49.982Z,16.00
2019-04-16T14:53:37.256Z,16.00
2019-04-16T14:56:14.815Z,16.10
2019-04-16T14:59:09.017Z,16.20
2019-04-16T15:02:00.268Z,16.30
2019-04-16T15:04:37.081Z,16.40
2019-04-16T15:07:39.234Z,16.60
2019-04-16T15:10:21.063Z,16.70
2019-04-16T15:13:12.559Z,16.90
2019-04-16T15:16:08.239Z,17.00
2019-04-16T15:18:51.992Z,17.00
2019-04-16T15:21:43.062Z,16.80
2019-04-16T15:24:18.840Z,16.60
2019-04-16T15:27:10.453Z,16.30
2019-04-16T15:29:57.853Z,16.10
2019-04-16T15:32:49.304Z,15.80
2019-04-16T15:35:23.692Z,15.40
2019-04-16T15:38:11.097Z,15.00
2019-04-16T15:40:41.617Z,14.70
2019-04-16T15:43:31.725Z,14.60
2019-04-16T15:46:25.984Z,14.30
2019-04-16T15:49:14.690Z,14.20
2019-04-16T15:51:56.282Z,14.10
2019-04-16T15:55:03.347Z,14.10
2019-04-16T15:57:39.420Z,14.00
2019-04-16T16:00:25.498Z,14.00
2019-04-16T16:03:13.063Z,14.10
2019-04-16T16:05:46.491Z,14.00
2019-04-16T16:08:35.815Z,13.90
2019-04-16T16:11:10.248Z,13.80
2019-04-16T16:13:39.668Z,13.70
2019-04-16T16:16:10.753Z,13.60
2019-04-16T16:18:40.707Z,13.60
2019-04-16T16:21:10.331Z,13.60
2019-04-16T16:23:40.020Z,13.60
2019-04-16T16:26:09.788Z,13.60
2019-04-16T16:28:39.635Z,13.60
2019-04-16T16:31:09.113Z,13.60
2019-04-16T16:33:38.661Z,13.60
2019-04-16T16:36:08.684Z,13.60
2019-04-16T16:38:38.282Z,13.60
2019-04-16T16:41:08.195Z,13.50
2019-04-16T16:43:38.010Z,13.50
2019-04-16T16:46:25.759Z,13.50
2019-04-16T16:48:55.834Z,13.40
2019-04-16T16:51:25.667Z,13.40
2019-04-16T16:54:04.911Z,13.30
2019-04-16T16:56:54.150Z,13.10
2019-04-16T16:59:42.507Z,12.90
2019-04-16T17:02:40.132Z,12.70
2019-04-16T17:05:15.285Z,12.50
2019-04-16T17:07:44.846Z,12.50
2019-04-16T17:10:14.491Z,12.50
2019-04-16T17:12:44.115Z,12.50
2019-04-16T17:15:13.946Z,12.50
2019-04-16T17:17:43.621Z,12.50
2019-04-16T17:20:13.707Z,12.50
2019-04-16T17:22:43.142Z,12.50
2019-04-16T17:25:13.083Z,12.50
2019-04-16T17:27:51.230Z,12.50
2019-04-16T17:30:14.982Z,12.40
2019-04-16T17:32:44.671Z,12.40
2019-04-16T17:35:15.939Z,12.30
2019-04-16T17:37:46.151Z,12.30
2019-04-16T17:40:21.456Z,12.30
2019-04-16T17:42:53.476Z,12.30
2019-04-16T17:45:45.509Z,12.30
2019-04-16T17:48:26.737Z,12.00
2019-04-16T17:51:08.091Z,11.90
2019-04-16T17:53:49.001Z,11.80
2019-04-16T17:56:40.499Z,11.60
2019-04-16T17:59:14.195Z,11.50
2019-04-16T18:02:11.876Z,11.40
2019-04-16T18:05:05.143Z,11.40
2019-04-16T18:08:06.393Z,11.40
2019-04-16T18:10:48.978Z,11.30
2019-04-16T18:13:29.245Z,11.30
2019-04-16T18:16:05.305Z,11.20
2019-04-16T18:19:06.845Z,11.30
2019-04-16T18:21:43.920Z,11.20
2019-04-16T18:24:25.219Z,11.10
2019-04-16T18:27:14.200Z,11.00
2019-04-16T18:30:07.067Z,10.90
2019-04-16T18:32:54.861Z,10.80
2019-04-16T18:35:38.729Z,10.80
2019-04-16T18:38:28.051Z,10.90
2019-04-16T18:41:15.635Z,10.80
2019-04-16T18:44:03.183Z,10.70
2019-04-16T18:46:57.820Z,10.70
2019-04-16T18:49:28.601Z,10.70
2019-04-16T18:51:58.812Z,10.70
2019-04-16T18:54:28.826Z,10.70
2019-04-16T18:56:59.170Z,10.70
2019-04-16T18:59:29.127Z,10.60
2019-04-16T19:02:02.945Z,10.60
2019-04-16T19:04:32.896Z,10.60
2019-04-16T19:07:03.283Z,10.50
2019-04-16T19:09:33.269Z,10.40
2019-04-16T19:12:03.716Z,10.20
2019-04-16T19:14:36.554Z,10.20
2019-04-16T19:17:06.335Z,10.20
2019-04-16T19:19:36.717Z,10.20
2019-04-16T19:22:07.364Z,10.20
2019-04-16T19:24:37.305Z,10.20
2019-04-16T19:27:07.557Z,10.20
2019-04-16T19:29:37.600Z,10.20
2019-04-16T19:32:07.527Z,10.20
2019-04-16T19:34:40.947Z,10.30
2019-04-16T19:37:09.077Z,10.20
2019-04-16T19:39:39.159Z,10.20
2019-04-16T19:42:11.253Z,10.00
2019-04-16T19:44:40.698Z,9.90
2019-04-16T19:47:10.567Z,9.90
2019-04-16T19:49:40.530Z,9.90
2019-04-16T19:52:10.655Z,9.90
2019-04-16T19:54:41.163Z,9.90
2019-04-16T19:57:12.242Z,9.90
2019-04-16T19:59:46.370Z,10.00
2019-04-16T20:02:13.961Z,10.00
2019-04-16T20:04:44.439Z,10.00
2019-04-16T20:07:15.489Z,9.90
2019-04-16T20:09:45.594Z,9.80
2019-04-16T20:12:15.713Z,9.60
2019-04-16T20:14:45.362Z,9.60
2019-04-16T20:17:15.215Z,9.50
2019-04-16T20:20:00.894Z,9.60
2019-04-16T20:22:32.179Z,9.60
2019-04-16T20:25:02.195Z,9.50
2019-04-16T20:27:32.109Z,9.40
2019-04-16T20:30:02.182Z,9.30
2019-04-16T20:32:34.398Z,9.30
2019-04-16T20:35:03.825Z,9.30
2019-04-16T20:37:34.088Z,9.20
2019-04-16T20:40:04.005Z,9.20
2019-04-16T20:42:34.112Z,9.20
2019-04-16T20:45:03.873Z,9.10
2019-04-16T20:47:38.825Z,9.10
2019-04-16T20:50:06.211Z,9.10
2019-04-16T20:52:36.169Z,9.10
2019-04-16T20:55:07.032Z,9.00
2019-04-16T20:57:39.134Z,9.00
2019-04-16T21:00:11.036Z,9.00
2019-04-16T21:02:40.849Z,8.90
2019-04-16T21:05:21.956Z,8.90
2019-04-16T21:07:43.985Z,8.90
2019-04-16T21:10:12.908Z,8.80
2019-04-16T21:12:45.311Z,8.80
2019-04-16T21:15:14.000Z,8.70
2019-04-16T21:17:43.613Z,8.70
2019-04-16T21:20:13.389Z,8.60
2019-04-16T21:22:42.961Z,8.60
2019-04-16T21:25:13.897Z,8.50
2019-04-16T21:27:59.778Z,8.50
2019-04-16T21:30:29.210Z,8.50
2019-04-16T21:33:06.710Z,8.50
2019-04-16T21:35:39.182Z,8.50
2019-04-16T21:38:27.787Z,8.50
2019-04-16T21:40:57.789Z,8.50
2019-04-16T21:43:27.357Z,8.50
2019-04-16T21:45:57.064Z,8.50
2019-04-16T21:48:27.700Z,8.50
2019-04-16T21:50:57.319Z,8.50
2019-04-16T21:53:27.843Z,8.50
2019-04-16T21:55:58.357Z,8.50
2019-04-16T21:58:27.814Z,8.40
2019-04-16T22:01:22.569Z,8.50
2019-04-16T22:04:02.548Z,8.50
2019-04-16T22:06:32.105Z,8.40
2019-04-16T22:09:03.564Z,8.40
2019-04-16T22:11:32.783Z,8.40
2019-04-16T22:14:02.286Z,8.30
2019-04-16T22:16:31.998Z,8.30
2019-04-16T22:19:01.493Z,8.30
2019-04-16T22:21:30.879Z,8.30
2019-04-16T22:24:00.376Z,8.30
2019-04-16T22:26:34.272Z,8.20
2019-04-16T22:29:01.338Z,8.20
2019-04-16T22:31:30.990Z,8.20
2019-04-16T22:34:00.640Z,8.20
2019-04-16T22:36:30.141Z,8.30
2019-04-16T22:39:05.680Z,8.30
2019-04-16T22:41:50.896Z,8.20
2019-04-16T22:44:51.440Z,8.20
2019-04-16T22:47:25.655Z,8.20
2019-04-16T22:50:12.855Z,8.20
2019-04-16T22:52:26.871Z,8.20
2019-04-16T22:54:56.457Z,8.20
2019-04-16T22:57:26.236Z,8.10
2019-04-16T22:59:55.612Z,8.10
2019-04-16T23:02:27.660Z,8.20
2019-04-16T23:04:58.502Z,8.20
2019-04-16T23:07:28.431Z,8.20
2019-04-16T23:09:58.322Z,8.20
2019-04-16T23:12:28.347Z,8.20
2019-04-16T23:14:57.865Z,8.20
2019-04-16T23:17:27.294Z,8.20
2019-04-16T23:19:57.140Z,8.20
2019-04-16T23:22:26.693Z,8.20
2019-04-16T23:24:56.448Z,8.20
2019-04-16T23:27:27.059Z,8.20
2019-04-16T23:29:56.590Z,8.20
2019-04-16T23:32:28.692Z,8.20
2019-04-16T23:34:57.359Z,8.20
2019-04-16T23:37:27.680Z,8.20
2019-04-16T23:39:57.335Z,8.10
2019-04-16T23:42:27.387Z,8.10
2019-04-16T23:45:31.128Z,8.10
2019-04-16T23:48:06.651Z,8.10
2019-04-16T23:50:45.135Z,8.10
2019-04-16T23:53:33.966Z,8.10
2019-04-16T23:56:20.670Z,8.10
2019-04-16T23:59:05.193Z,8.10
